Time;durP1;ratioP1;P1;durP2;ratioP2;P2;SDS_P1;SDS_P2;PMS_P1;PMS_P2;Temp;Humidity;BMP_temperature;BMP_pressure;BME280_temperature;BME280_humidity;BME280_pressure;Samples;Min_cycle;Max_cycle;Signal;HPM_P1;HPM_P2
2023/03/10 00:01:09;;;;;;;;;;;;;;;-144.99;96.91;52497.00;5050666;28;19940;-76
2023/03/10 00:03:35;;;;;;;;;;;;;;;-144.99;97.04;52488.84;5034768;28;20375;-73
2023/03/10 00:06:02;;;;;;;;;;;;;;;-144.99;97.30;52541.84;5035614;28;19936;-74
2023/03/10 00:08:28;;;;;;;;;;;;;;;-144.99;96.92;52537.78;5034392;28;19933;-73
2023/03/10 00:10:55;;;;;;;;;;;;;;;-144.99;97.06;52494.97;5032912;28;19933;-73
2023/03/10 00:13:22;;;;;;;;;;;;;;;-144.99;97.09;52550.00;5032965;28;19955;-72
2023/03/10 00:15:50;;;;;;;;;;;;;;;-144.99;97.24;52464.41;5035508;28;19929;-74
2023/03/10 00:18:16;;;;;;;;;;;;;;;-144.99;97.88;52521.47;5040050;28;19925;-75
2023/03/10 00:20:43;;;;;;;;;;;;;;;-144.99;97.49;52521.47;5040552;28;20374;-76
2023/03/10 00:23:09;;;;;;;;;;;;;;;-144.99;97.39;52525.56;5039023;28;19925;-75
2023/03/10 00:25:36;;;;;;;;;;;;;;;-144.99;97.50;52505.16;4688809;28;9999780;-75
2023/03/10 00:28:02;;;;;;;;;;;;;;;-144.99;97.72;52521.47;5037664;28;20043;-75
2023/03/10 00:30:29;;;;;;;;;;;;;;;-144.99;97.72;52523.50;5036295;28;20002;-73
2023/03/10 00:32:57;;;;;;;;;;;;;;;-144.99;97.29;52539.81;5027829;28;19936;-69
2023/03/10 00:35:23;;;;;;;;;;;;;;;-144.99;97.15;52558.16;5029138;28;19941;-70
2023/03/10 00:37:50;;;;;;;;;;;;;;;-144.99;97.12;52521.47;5029293;28;19999;-70
2023/03/10 00:40:17;;;;;;;;;;;;;;;-144.99;97.35;52519.44;5028672;28;19925;-69
2023/03/10 00:42:43;;;;;;;;;;;;;;;-144.99;98.04;52533.69;5026393;28;19943;-69
2023/03/10 00:45:10;;;;;;;;;;;;;;;-144.99;97.71;52533.69;5036855;28;20392;-69
2023/03/10 00:47:37;;;;;;;;;;;;;;;-144.99;97.92;52521.47;5030878;28;19979;-70
2023/03/10 00:50:05;;;;;;;;;;;;;;;-144.99;97.92;52484.78;5028789;28;20038;-70
2023/03/10 00:52:32;;;;;;;;;;;;;;;-144.99;97.76;52505.16;5029029;28;20003;-71
2023/03/10 00:54:59;;;;;;;;;;;;;;;-144.99;98.00;52476.63;5030210;28;20008;-71
2023/03/10 00:57:25;;;;;;;;;;;;;;;-144.99;97.98;52541.84;5027969;28;19933;-70
2023/03/10 00:59:52;;;;;;;;;;;;;;;-144.99;97.82;52499.06;5025119;28;19975;-66
2023/03/10 01:02:18;;;;;;;;;;;;;;;-144.99;97.62;52513.31;5027749;28;19944;-66
2023/03/10 01:04:45;;;;;;;;;;;;;;;-144.99;97.67;52513.31;5030142;28;19929;-66
2023/03/10 01:07:13;;;;;;;;;;;;;;;-144.99;97.47;52509.25;5028739;28;20349;-70
2023/03/10 01:09:39;;;;;;;;;;;;;;;-144.99;97.60;52521.47;5022111;28;19987;-70
2023/03/10 01:12:06;;;;;;;;;;;;;;;-144.99;97.79;52537.78;5029952;28;19983;-69
2023/03/10 01:14:33;;;;;;;;;;;;;;;-144.99;97.83;52494.97;5029928;28;19925;-69
2023/03/10 01:16:59;;;;;;;;;;;;;;;-144.99;97.90;52505.16;5029228;28;19925;-64
2023/03/10 01:19:26;;;;;;;;;;;;;;;-144.99;98.23;52554.09;5026017;28;20086;-64
2023/03/10 01:21:52;;;;;;;;;;;;;;;-144.99;97.91;52509.25;5027045;28;19929;-67
2023/03/10 01:24:20;;;;;;;;;;;;;;;-144.99;97.97;52525.56;5027370;28;20458;-67
2023/03/10 01:26:47;;;;;;;;;;;;;;;-144.99;98.27;52497.00;5029076;28;19925;-67
2023/03/10 01:29:13;;;;;;;;;;;;;;;-144.99;98.51;52517.41;5027667;28;19975;-67
2023/03/10 01:31:40;;;;;;;;;;;;;;;-144.99;98.67;52507.19;5025906;28;19926;-69
2023/03/10 01:34:07;;;;;;;;;;;;;;;-144.99;98.27;52509.25;5024500;28;19941;-69
2023/03/10 01:36:33;;;;;;;;;;;;;;;-144.99;98.43;52511.28;5028331;28;19968;-70
2023/03/10 01:39:00;;;;;;;;;;;;;;;-144.99;98.86;52558.16;5027798;28;19978;-70
2023/03/10 01:41:28;;;;;;;;;;;;;;;-144.99;99.31;52521.47;5026917;28;20012;-70
2023/03/10 01:43:55;;;;;;;;;;;;;;;-144.99;99.31;52488.84;5028265;28;19999;-70
2023/03/10 01:46:32;;;;;;;;;;;;;;;-144.99;99.64;52503.13;5030243;28;19994;-70
2023/03/10 01:49:00;;;;;;;;;;;;;;;-144.99;99.77;52499.06;5026302;28;19960;-70
2023/03/10 01:51:28;;;;;;;;;;;;;;;-144.99;99.52;52517.41;5024594;28;19964;-70
2023/03/10 01:53:55;;;;;;;;;;;;;;;-144.99;99.83;52501.09;5024890;28;19933;-71
2023/03/10 01:56:21;;;;;;;;;;;;;;;-144.99;99.47;52521.47;5027633;28;19987;-71
2023/03/10 01:58:49;;;;;;;;;;;;;;;-144.99;99.71;52497.00;5027686;28;20003;-70
2023/03/10 02:01:17;;;;;;;;;;;;;;;-144.99;99.87;52497.00;5022735;28;20005;-71
2023/03/10 02:03:46;;;;;;;;;;;;;;;-144.99;100.00;52509.25;5021913;28;20043;-71
2023/03/10 02:06:14;;;;;;;;;;;;;;;-144.99;100.00;52488.84;5026387;28;20393;-71
2023/03/10 02:08:42;;;;;;;;;;;;;;;-144.99;100.00;52521.47;5027031;28;19976;-71
2023/03/10 02:11:09;;;;;;;;;;;;;;;-144.99;100.00;52533.69;5028140;28;19988;-71
2023/03/10 02:13:35;;;;;;;;;;;;;;;-144.99;100.00;52517.41;5027796;28;19929;-71
2023/03/10 02:16:03;;;;;;;;;;;;;;;-144.99;100.00;52492.94;5026494;28;20334;-70
2023/03/10 02:18:30;;;;;;;;;;;;;;;-144.99;100.00;52513.31;5027209;28;19986;-70
2023/03/10 02:21:03;;;;;;;;;;;;;;;-144.99;100.00;52501.09;5030435;28;19925;-71
2023/03/10 02:23:35;;;;;;;;;;;;;;;-144.99;100.00;52574.47;5026283;28;20293;-68
2023/03/10 02:26:05;;;;;;;;;;;;;;;-144.99;100.00;52521.47;5022933;28;19933;-68
2023/03/10 02:28:33;;;;;;;;;;;;;;;-144.99;100.00;52505.16;5025823;28;19925;-68
2023/03/10 02:31:00;;;;;;;;;;;;;;;-144.99;100.00;52474.59;5027403;28;19982;-67
2023/03/10 02:36:14;;;;;;;;;;;;;;;-144.99;100.00;52464.41;5108850;27;19922;-68
2023/03/10 02:38:40;;;;;;;;;;;;;;;-144.99;100.00;52499.06;5104561;28;20453;-69
2023/03/10 02:41:13;;;;;;;;;;;;;;;-144.99;100.00;52492.94;5097930;28;19970;-69
2023/03/10 02:43:40;;;;;;;;;;;;;;;-144.99;100.00;52492.94;5099578;28;19932;-64
2023/03/10 02:46:07;;;;;;;;;;;;;;;-144.99;100.00;52505.16;5103005;28;20008;-64
2023/03/10 02:48:35;;;;;;;;;;;;;;;-144.99;100.00;52543.91;5101564;28;20019;-63
2023/03/10 02:51:02;;;;;;;;;;;;;;;-144.99;100.00;52505.16;5096746;28;19928;-69
2023/03/10 02:53:30;;;;;;;;;;;;;;;-144.99;100.00;52545.94;5096185;28;19959;-70
2023/03/10 02:55:57;;;;;;;;;;;;;;;-144.99;100.00;52562.25;5098587;28;20012;-69
2023/03/10 02:58:25;;;;;;;;;;;;;;;-144.99;100.00;52501.09;5097059;27;20009;-71
2023/03/10 03:00:51;;;;;;;;;;;;;;;-144.99;100.00;52525.56;5095330;28;19929;-70
2023/03/10 03:03:18;;;;;;;;;;;;;;;-144.99;100.00;52505.16;5094721;28;20010;-70
2023/03/10 03:05:45;;;;;;;;;;;;;;;-144.99;100.00;52509.25;5103058;28;19924;-72
2023/03/10 03:08:12;;;;;;;;;;;;;;;-144.99;100.00;52547.97;5097010;28;19948;-75
2023/03/10 03:10:40;;;;;;;;;;;;;;;-144.99;100.00;52513.31;5105974;28;19928;-75
2023/03/10 03:13:07;;;;;;;;;;;;;;;-144.99;100.00;52503.13;5101798;28;19928;-69
2023/03/10 03:15:34;;;;;;;;;;;;;;;-144.99;99.81;52476.63;5100415;28;19924;-69
2023/03/10 03:18:00;;;;;;;;;;;;;;;-144.99;99.52;52497.00;5097354;28;20065;-69
2023/03/10 03:20:28;;;;;;;;;;;;;;;-144.99;99.66;52519.44;5101494;28;19924;-68
2023/03/10 03:22:54;;;;;;;;;;;;;;;-144.99;99.75;52492.94;5101753;28;19928;-68
2023/03/10 03:25:22;;;;;;;;;;;;;;;-144.99;99.71;52529.63;5099259;28;20345;-68
2023/03/10 03:27:50;;;;;;;;;;;;;;;-144.99;100.00;52513.31;5103678;28;20054;-67
2023/03/10 03:30:18;;;;;;;;;;;;;;;-144.99;100.00;52521.47;5099450;28;20028;-67
2023/03/10 03:32:45;;;;;;;;;;;;;;;-144.99;100.00;52492.94;5097238;28;20107;-67
2023/03/10 03:35:14;;;;;;;;;;;;;;;-144.99;100.00;52547.97;5099042;28;19969;-67
2023/03/10 03:37:41;;;;;;;;;;;;;;;-144.99;100.00;52505.16;5097480;28;20015;-65
2023/03/10 03:40:12;;;;;;;;;;;;;;;-144.99;100.00;52525.56;5097327;28;19964;-65
2023/03/10 03:42:38;;;;;;;;;;;;;;;-144.99;100.00;52525.56;5096286;28;19950;-65
2023/03/10 03:45:07;;;;;;;;;;;;;;;-144.99;100.00;52517.41;5101310;28;19977;-66
2023/03/10 03:47:33;;;;;;;;;;;;;;;-144.99;100.00;52529.63;5089179;28;20122;-65
2023/03/10 03:50:00;;;;;;;;;;;;;;;-144.99;100.00;52517.41;5086500;28;19978;-66
2023/03/10 03:52:26;;;;;;;;;;;;;;;-144.99;100.00;52492.94;5090179;28;19963;-65
2023/03/10 03:54:53;;;;;;;;;;;;;;;-144.99;100.00;52513.31;5088343;28;19928;-66
2023/03/10 03:57:20;;;;;;;;;;;;;;;-144.99;100.00;52509.25;5090700;28;20000;-70
2023/03/10 03:59:47;;;;;;;;;;;;;;;-144.99;100.00;52484.78;5091364;28;19924;-71
2023/03/10 04:02:14;;;;;;;;;;;;;;;-144.99;100.00;52529.63;5094415;28;19985;-71
2023/03/10 04:04:41;;;;;;;;;;;;;;;-144.99;100.00;52492.94;5089572;28;19989;-70
2023/03/10 04:07:08;;;;;;;;;;;;;;;-144.99;100.00;52515.34;5096637;28;19935;-71
2023/03/10 04:09:34;;;;;;;;;;;;;;;-144.99;100.00;52509.25;5096489;28;19977;-71
2023/03/10 04:12:01;;;;;;;;;;;;;;;-144.99;100.00;52490.91;5091583;28;19932;-70
2023/03/10 04:14:27;;;;;;;;;;;;;;;-144.99;100.00;52521.47;5094591;28;19924;-73
2023/03/10 04:16:54;;;;;;;;;;;;;;;-144.99;100.00;52452.16;5093959;28;19928;-73
2023/03/10 04:19:22;;;;;;;;;;;;;;;-144.99;100.00;52509.25;5085065;28;20476;-72
2023/03/10 04:21:48;;;;;;;;;;;;;;;-144.99;100.00;52515.34;5082828;28;19986;-73
2023/03/10 04:24:15;;;;;;;;;;;;;;;-144.99;100.00;52509.25;5087259;28;20027;-73
2023/03/10 04:26:41;;;;;;;;;;;;;;;-144.99;100.00;52517.41;5085523;28;19924;-72
2023/03/10 04:29:09;;;;;;;;;;;;;;;-144.99;100.00;52545.94;5085478;28;21054;-71
2023/03/10 04:31:35;;;;;;;;;;;;;;;-144.99;100.00;52505.16;5088038;28;19928;-72
2023/03/10 04:34:02;;;;;;;;;;;;;;;-144.99;100.00;52529.63;5082777;28;20418;-72
2023/03/10 04:36:30;;;;;;;;;;;;;;;-144.99;100.00;52505.16;5082128;28;19967;-74
2023/03/10 04:38:58;;;;;;;;;;;;;;;-144.99;100.00;52517.41;5085042;28;19974;-70
2023/03/10 04:41:25;;;;;;;;;;;;;;;-144.99;100.00;52529.63;5081593;28;19988;-70
2023/03/10 04:43:51;;;;;;;;;;;;;;;-144.99;100.00;52505.16;5091136;28;19928;-69
2023/03/10 04:46:18;;;;;;;;;;;;;;;-144.99;100.00;52488.84;5087723;28;19928;-71
2023/03/10 04:48:45;;;;;;;;;;;;;;;-144.99;100.00;52484.78;5092223;28;19928;-70
2023/03/10 04:51:12;;;;;;;;;;;;;;;-144.99;100.00;52564.28;5087811;28;20069;-69
2023/03/10 04:53:40;;;;;;;;;;;;;;;-144.99;100.00;52533.69;5082885;28;19924;-71
2023/03/10 04:56:08;;;;;;;;;;;;;;;-144.99;100.00;52537.78;5082214;28;19990;-69
2023/03/10 04:58:35;;;;;;;;;;;;;;;-144.99;100.00;52513.31;5087978;28;20318;-70
2023/03/10 05:01:01;;;;;;;;;;;;;;;-144.99;100.00;52527.59;5079554;28;19998;-69
2023/03/10 05:03:28;;;;;;;;;;;;;;;-144.99;100.00;52533.69;5085185;28;19931;-69
2023/03/10 05:05:54;;;;;;;;;;;;;;;-144.99;100.00;52533.69;5080222;28;20048;-69
2023/03/10 05:08:21;;;;;;;;;;;;;;;-144.99;100.00;52511.28;5087789;28;19932;-70
2023/03/10 05:10:49;;;;;;;;;;;;;;;-144.99;100.00;52511.28;5091341;28;19929;-71
2023/03/10 05:13:15;;;;;;;;;;;;;;;-144.99;100.00;52525.56;5086537;28;20011;-71
2023/03/10 05:15:42;;;;;;;;;;;;;;;-144.99;100.00;52523.50;5081712;28;19924;-76
2023/03/10 05:18:09;;;;;;;;;;;;;;;-144.99;100.00;52482.75;5088961;28;19924;-69
2023/03/10 05:20:36;;;;;;;;;;;;;;;-144.99;100.00;52505.16;5079151;28;19924;-69
2023/03/10 05:23:03;;;;;;;;;;;;;;;-144.99;100.00;52488.84;5084405;28;20470;-69
2023/03/10 05:25:29;;;;;;;;;;;;;;;-144.99;100.00;52513.31;5083406;28;19924;-71
2023/03/10 05:27:57;;;;;;;;;;;;;;;-144.99;100.00;52505.16;5076576;28;20279;-69
2023/03/10 05:30:24;;;;;;;;;;;;;;;-144.99;100.00;52517.41;5087062;28;19928;-68
2023/03/10 05:32:50;;;;;;;;;;;;;;;-144.99;100.00;52529.63;5086010;28;19981;-68
2023/03/10 05:35:17;;;;;;;;;;;;;;;-144.99;100.00;52509.25;5086830;28;19985;-68
2023/03/10 05:37:44;;;;;;;;;;;;;;;-144.99;100.00;52488.84;5081867;28;19978;-69
2023/03/10 05:40:12;;;;;;;;;;;;;;;-144.99;100.00;52554.09;5081724;28;19925;-68
2023/03/10 05:42:39;;;;;;;;;;;;;;;-144.99;100.00;52492.94;5085798;28;19955;-69
2023/03/10 05:45:08;;;;;;;;;;;;;;;-144.99;100.00;52515.34;5085314;28;20093;-68
2023/03/10 05:47:34;;;;;;;;;;;;;;;-144.99;100.00;52480.72;5098485;28;19924;-69
2023/03/10 05:50:01;;;;;;;;;;;;;;;-144.99;100.00;52497.00;5100052;28;19995;-69
2023/03/10 05:52:27;;;;;;;;;;;;;;;-144.99;100.00;52523.50;5088753;28;19970;-69
2023/03/10 05:54:54;;;;;;;;;;;;;;;-144.99;100.00;52505.16;5085780;28;19997;-69
2023/03/10 05:57:20;;;;;;;;;;;;;;;-144.99;100.00;52497.00;5088444;28;19932;-68
2023/03/10 05:59:47;;;;;;;;;;;;;;;-144.99;100.00;52501.09;5088440;28;20304;-68
2023/03/10 06:02:15;;;;;;;;;;;;;;;-144.99;100.00;52562.25;5088912;27;19925;-67
2023/03/10 06:04:41;;;;;;;;;;;;;;;-144.99;100.00;52513.31;5088013;28;20438;-68
2023/03/10 06:07:08;;;;;;;;;;;;;;;-144.99;100.00;52523.50;5080425;28;19932;-69
2023/03/10 06:09:34;;;;;;;;;;;;;;;-144.99;100.00;52529.63;5086088;28;19977;-69
2023/03/10 06:12:01;;;;;;;;;;;;;;;-144.99;100.00;52511.28;5088386;28;20357;-69
2023/03/10 06:14:28;;;;;;;;;;;;;;;-144.99;100.00;52499.06;5088411;28;20107;-71
2023/03/10 06:16:54;;;;;;;;;;;;;;;-144.99;100.00;52492.94;5088498;28;20458;-72
2023/03/10 06:19:23;;;;;;;;;;;;;;;-144.99;100.00;52488.84;5084426;28;19924;-72
2023/03/10 06:21:49;;;;;;;;;;;;;;;-144.99;100.00;52466.44;5087952;28;19928;-72
2023/03/10 06:24:16;;;;;;;;;;;;;;;-144.99;100.00;52482.75;5080919;28;19998;-72
2023/03/10 06:26:43;;;;;;;;;;;;;;;-144.99;100.00;52513.31;5082369;28;19935;-72
2023/03/10 06:29:09;;;;;;;;;;;;;;;-144.99;100.00;52523.50;5096791;28;19941;-75
2023/03/10 06:31:36;;;;;;;;;;;;;;;-144.99;100.00;52490.91;5103349;28;19989;-73
2023/03/10 06:34:03;;;;;;;;;;;;;;;-144.99;100.00;52505.16;5089235;28;19924;-75
2023/03/10 06:36:31;;;;;;;;;;;;;;;-144.99;100.00;52519.44;4725840;28;10000247;-73
2023/03/10 06:38:58;;;;;;;;;;;;;;;-144.99;100.00;52503.13;5080770;28;20401;-73
2023/03/10 06:41:26;;;;;;;;;;;;;;;-144.99;100.00;52482.75;5081906;28;19928;-74
2023/03/10 06:43:53;;;;;;;;;;;;;;;-144.99;100.00;52529.63;5081862;28;19928;-73
2023/03/10 06:46:20;;;;;;;;;;;;;;;-144.99;100.00;52509.25;5085136;28;20389;-74
2023/03/10 06:48:46;;;;;;;;;;;;;;;-144.99;100.00;52492.94;5084092;28;20413;-73
2023/03/10 06:51:14;;;;;;;;;;;;;;;-144.99;100.00;52533.69;5077034;28;20038;-76
2023/03/10 06:53:42;;;;;;;;;;;;;;;-144.99;100.00;52497.00;5078846;28;20001;-74
2023/03/10 06:56:11;;;;;;;;;;;;;;;-144.99;100.00;52448.09;5074530;28;20009;-75
2023/03/10 06:58:37;;;;;;;;;;;;;;;-144.99;100.00;52476.63;5082481;28;19932;-75
2023/03/10 07:01:05;;;;;;;;;;;;;;;-144.99;99.94;52521.47;5072962;28;19990;-74
2023/03/10 07:03:31;;;;;;;;;;;;;;;-144.99;100.00;52497.00;5077419;28;20355;-75
2023/03/10 07:05:58;;;;;;;;;;;;;;;-144.99;99.78;52541.84;5082351;28;20028;-77
2023/03/10 07:08:25;;;;;;;;;;;;;;;-144.99;99.66;52501.09;5083776;28;19932;-80
2023/03/10 07:10:53;;;;;;;;;;;;;;;-144.99;99.66;52558.16;5110541;28;19924;-81
2023/03/10 07:13:20;;;;;;;;;;;;;;;-144.99;99.87;52545.94;5093853;28;19924;-77
2023/03/10 07:15:47;;;;;;;;;;;;;;;-144.99;99.72;52519.44;5091641;28;19993;-76
2023/03/10 07:18:14;;;;;;;;;;;;;;;-144.99;99.41;52488.84;5079833;28;20358;-76
2023/03/10 07:20:43;;;;;;;;;;;;;;;-144.99;99.66;52497.00;5078995;28;19935;-76
2023/03/10 07:23:10;;;;;;;;;;;;;;;-144.99;99.33;52476.63;5091170;28;19970;-74
2023/03/10 07:25:37;;;;;;;;;;;;;;;-144.99;99.08;52499.06;5079207;28;21828;-76
2023/03/10 07:28:05;;;;;;;;;;;;;;;-144.99;98.65;52517.41;5091099;28;20009;-76
2023/03/10 07:30:32;;;;;;;;;;;;;;;-144.99;98.96;52480.72;5084801;28;19932;-74
2023/03/10 07:32:59;;;;;;;;;;;;;;;-144.99;98.56;52499.06;5093268;28;19928;-76
2023/03/10 07:35:25;;;;;;;;;;;;;;;-144.99;98.30;52521.47;5088521;28;19961;-77
2023/03/10 07:37:52;;;;;;;;;;;;;;;-144.99;98.35;52488.84;5083343;28;19928;-76
2023/03/10 07:40:21;;;;;;;;;;;;;;;-144.99;98.39;52492.94;5093477;28;20366;-73
2023/03/10 07:42:48;;;;;;;;;;;;;;;-144.99;98.31;52464.41;5084504;28;19960;-77
2023/03/10 07:45:16;;;;;;;;;;;;;;;-144.99;98.06;52460.31;5083557;28;20350;-76
2023/03/10 07:47:42;;;;;;;;;;;;;;;-144.99;97.62;52501.09;5081326;28;19931;-75
2023/03/10 07:50:09;;;;;;;;;;;;;;;-144.99;97.99;52513.31;5104642;28;19928;-82
2023/03/10 07:52:36;;;;;;;;;;;;;;;-144.99;97.79;52497.00;5102935;28;20276;-76
2023/03/10 07:55:03;;;;;;;;;;;;;;;-144.99;97.91;52539.81;4728208;28;9999889;-76
2023/03/10 07:57:29;;;;;;;;;;;;;;;-144.99;98.24;52499.06;5090863;28;20457;-77
2023/03/10 07:59:56;;;;;;;;;;;;;;;-144.99;98.20;52517.41;5089607;28;19932;-76
2023/03/10 08:02:24;;;;;;;;;;;;;;;-144.99;98.41;52492.94;5082891;28;19925;-76
2023/03/10 08:04:51;;;;;;;;;;;;;;;-144.99;98.42;52488.84;5087546;28;19982;-76
2023/03/10 08:07:17;;;;;;;;;;;;;;;-144.99;98.46;52545.94;5080585;28;20015;-78
2023/03/10 08:09:49;;;;;;;;;;;;;;;-144.99;98.61;52494.97;5091182;28;19939;-75
2023/03/10 08:12:15;;;;;;;;;;;;;;;-144.99;98.40;52501.09;5081376;28;19970;-75
2023/03/10 08:14:42;;;;;;;;;;;;;;;-144.99;98.33;52480.72;5083790;28;19924;-76
2023/03/10 08:17:08;;;;;;;;;;;;;;;-144.99;98.09;52541.84;5077700;28;19993;-74
2023/03/10 08:19:37;;;;;;;;;;;;;;;-144.99;97.95;52505.16;5079158;28;19936;-79
2023/03/10 08:22:04;;;;;;;;;;;;;;;-144.99;98.60;52521.47;5081476;28;20451;-75
2023/03/10 08:24:30;;;;;;;;;;;;;;;-144.99;98.62;52509.25;5086616;28;20399;-76
2023/03/10 08:26:57;;;;;;;;;;;;;;;-144.99;98.54;52501.09;5077592;28;20032;-76
2023/03/10 08:29:24;;;;;;;;;;;;;;;-144.99;99.17;52529.63;5084319;28;19928;-78
2023/03/10 08:31:50;;;;;;;;;;;;;;;-144.99;98.98;52484.78;5107400;28;19946;-81
2023/03/10 08:34:17;;;;;;;;;;;;;;;-144.99;98.77;52484.78;5089855;28;19992;-76
2023/03/10 08:36:45;;;;;;;;;;;;;;;-144.99;98.08;52480.72;5083015;28;20292;-75
2023/03/10 08:39:12;;;;;;;;;;;;;;;-144.99;98.08;52513.31;5081166;28;20069;-74
2023/03/10 08:41:41;;;;;;;;;;;;;;;-144.99;98.42;52515.34;5095515;28;20122;-76
2023/03/10 08:44:10;;;;;;;;;;;;;;;-144.99;98.40;52501.09;5082485;28;19928;-72
2023/03/10 08:46:37;;;;;;;;;;;;;;;-144.99;97.93;52513.31;5082496;28;19939;-73
2023/03/10 08:49:03;;;;;;;;;;;;;;;-144.99;98.21;52497.00;5083905;28;20366;-75
2023/03/10 08:51:30;;;;;;;;;;;;;;;-144.99;98.33;52484.78;5087940;28;20605;-74
2023/03/10 08:53:58;;;;;;;;;;;;;;;-144.99;98.11;52501.09;5077435;28;19932;-75
2023/03/10 08:56:24;;;;;;;;;;;;;;;-144.99;98.32;52497.00;5085405;28;19945;-75
2023/03/10 08:58:53;;;;;;;;;;;;;;;-144.99;97.77;52507.19;5083197;28;19935;-74
2023/03/10 09:01:19;;;;;;;;;;;;;;;-144.99;97.48;52488.84;5083169;28;20368;-74
2023/03/10 09:03:46;;;;;;;;;;;;;;;-144.99;97.80;52501.09;5086335;28;19928;-74
2023/03/10 09:06:13;;;;;;;;;;;;;;;-144.99;98.17;52497.00;5098171;27;20396;-75
2023/03/10 09:08:40;;;;;;;;;;;;;;;-144.99;97.82;52509.25;5074553;28;19932;-75
2023/03/10 09:11:08;;;;;;;;;;;;;;;-144.99;97.18;52497.00;5097919;28;19937;-78
2023/03/10 09:13:35;;;;;;;;;;;;;;;-144.99;97.67;52513.31;5096525;28;19928;-74
2023/03/10 09:16:01;;;;;;;;;;;;;;;-144.99;97.83;52521.47;5084129;28;19932;-74
2023/03/10 09:18:28;;;;;;;;;;;;;;;-144.99;98.01;52517.41;5078374;28;19989;-75
2023/03/10 09:20:54;;;;;;;;;;;;;;;-144.99;97.95;52517.41;5084497;28;19959;-74
2023/03/10 09:23:21;;;;;;;;;;;;;;;-144.99;97.98;52507.19;5081068;28;20007;-73
2023/03/10 09:25:47;;;;;;;;;;;;;;;-144.99;97.95;52484.78;5074637;28;19928;-72
2023/03/10 09:28:15;;;;;;;;;;;;;;;-144.99;98.02;52529.63;5082466;28;19985;-74
2023/03/10 09:30:42;;;;;;;;;;;;;;;-144.99;97.68;52513.31;5096800;28;20222;-72
2023/03/10 09:33:13;;;;;;;;;;;;;;;-144.99;98.10;52513.31;5077072;28;19974;-72
2023/03/10 09:35:39;;;;;;;;;;;;;;;-144.99;97.95;52494.97;5082957;28;19978;-71
2023/03/10 09:38:06;;;;;;;;;;;;;;;-144.99;98.23;52517.41;5076675;28;19932;-71
2023/03/10 09:40:33;;;;;;;;;;;;;;;-144.99;98.03;52470.50;5080075;28;20162;-72
2023/03/10 09:43:00;;;;;;;;;;;;;;;-144.99;98.16;52472.56;5077068;28;19928;-72
2023/03/10 09:45:33;;;;;;;;;;;;;;;-144.99;98.22;52533.69;5073674;28;19928;-72
2023/03/10 09:48:16;;;;;;;;;;;;;;;-144.99;97.81;52492.94;5076341;28;19928;-72
2023/03/10 09:50:44;;;;;;;;;;;;;;;-144.99;97.58;52484.78;5084137;28;19946;-74
2023/03/10 09:53:21;;;;;;;;;;;;;;;-144.99;97.89;52517.41;5099000;28;19928;-72
2023/03/10 09:55:48;;;;;;;;;;;;;;;-144.99;97.88;52480.72;5082442;28;19978;-75
2023/03/10 09:58:19;;;;;;;;;;;;;;;-144.99;98.00;52545.94;5082778;28;20362;-74
2023/03/10 10:00:47;;;;;;;;;;;;;;;-144.99;97.18;52497.00;5077971;28;20006;-73
2023/03/10 10:03:17;;;;;;;;;;;;;;;-144.99;96.88;52509.25;5094394;28;19946;-73
2023/03/10 10:05:44;;;;;;;;;;;;;;;-144.99;95.78;52505.16;5075752;28;20378;-73
2023/03/10 10:08:18;;;;;;;;;;;;;;;-144.99;94.50;52497.00;5082050;28;19955;-74
2023/03/10 10:10:48;;;;;;;;;;;;;;;-144.99;95.08;52499.06;5081076;28;19939;-72
2023/03/10 10:13:16;;;;;;;;;;;;;;;-144.99;94.47;52503.13;5082998;28;19998;-72
2023/03/10 10:15:44;;;;;;;;;;;;;;;-144.99;95.47;52476.63;5074914;28;19924;-72
2023/03/10 10:18:14;;;;;;;;;;;;;;;-144.99;96.40;52533.69;5086794;28;20452;-74
2023/03/10 10:20:43;;;;;;;;;;;;;;;-144.99;96.09;52480.72;5085263;28;19925;-71
2023/03/10 10:23:18;;;;;;;;;;;;;;;-144.99;96.20;52492.94;5085854;28;20274;-72
2023/03/10 10:25:45;;;;;;;;;;;;;;;-144.99;96.07;52492.94;5078890;28;19940;-73
2023/03/10 10:28:18;;;;;;;;;;;;;;;-144.99;96.24;52501.09;5087708;28;19931;-74
2023/03/10 10:30:45;;;;;;;;;;;;;;;-144.99;96.09;52494.97;5102799;28;20109;-76
2023/03/10 10:33:12;;;;;;;;;;;;;;;-144.99;96.80;52441.97;5103521;28;19912;-80
2023/03/10 10:35:42;;;;;;;;;;;;;;;-144.99;96.81;52550.00;5088473;28;20066;-72
2023/03/10 10:38:18;;;;;;;;;;;;;;;-144.99;96.30;52497.00;5095279;28;19947;-72
2023/03/10 10:40:48;;;;;;;;;;;;;;;-144.99;95.95;52499.06;5088377;28;19931;-69
2023/03/10 10:43:16;;;;;;;;;;;;;;;-144.99;95.35;52501.09;5094992;28;19985;-74
2023/03/10 10:45:43;;;;;;;;;;;;;;;-144.99;95.59;52497.00;5091773;28;20295;-73
2023/03/10 10:48:27;;;;;;;;;;;;;;;-144.99;95.19;52497.00;5087346;28;19928;-74
2023/03/10 10:50:55;;;;;;;;;;;;;;;-144.99;95.09;52529.63;5091845;28;20347;-74
2023/03/10 10:53:25;;;;;;;;;;;;;;;-144.99;95.21;52464.41;5090467;28;20183;-76
2023/03/10 10:55:59;;;;;;;;;;;;;;;-144.99;95.52;52476.63;5090088;28;19986;-74
2023/03/10 10:58:28;;;;;;;;;;;;;;;-144.99;95.74;52460.31;5089539;28;20443;-75
2023/03/10 11:00:57;;;;;;;;;;;;;;;-144.99;95.68;52488.84;5092491;28;19963;-74
2023/03/10 11:03:25;;;;;;;;;;;;;;;-144.99;95.33;52521.47;5089497;28;20404;-73
2023/03/10 11:05:52;;;;;;;;;;;;;;;-144.99;95.18;52488.84;5091883;28;20351;-71
2023/03/10 11:08:27;;;;;;;;;;;;;;;-144.99;93.94;52513.31;5089449;28;20002;-73
2023/03/10 11:10:56;;;;;;;;;;;;;;;-144.99;93.68;52456.25;5084770;28;19913;-75
2023/03/10 11:13:26;;;;;;;;;;;;;;;-144.99;94.72;52480.72;5107043;28;19977;-76
2023/03/10 11:15:57;;;;;;;;;;;;;;;-144.99;94.55;52492.94;5095549;28;19997;-73
2023/03/10 11:18:29;;;;;;;;;;;;;;;-144.99;94.94;52505.16;5089639;28;19948;-74
2023/03/10 11:21:01;;;;;;;;;;;;;;;-144.99;95.00;52464.41;5088117;28;19993;-74
2023/03/10 11:23:34;;;;;;;;;;;;;;;-144.99;95.66;52509.25;5078615;28;19978;-75
2023/03/10 11:26:06;;;;;;;;;;;;;;;-144.99;95.91;52513.31;5107542;28;19928;-74
2023/03/10 11:28:41;;;;;;;;;;;;;;;-144.99;96.44;52509.25;5090146;28;19932;-72
2023/03/10 11:31:13;;;;;;;;;;;;;;;-144.99;96.39;52497.00;5095693;28;19928;-73
2023/03/10 11:33:45;;;;;;;;;;;;;;;-144.99;96.32;52476.63;5092023;28;20468;-74
2023/03/10 11:36:16;;;;;;;;;;;;;;;-144.99;96.42;52509.25;5092437;28;19928;-73
2023/03/10 11:38:47;;;;;;;;;;;;;;;-144.99;96.32;52484.78;5079439;28;20319;-74
2023/03/10 11:41:14;;;;;;;;;;;;;;;-144.99;97.05;52521.47;5077496;28;19925;-72
2023/03/10 11:43:47;;;;;;;;;;;;;;;-144.99;97.03;52476.63;5080645;28;19978;-75
2023/03/10 11:46:16;;;;;;;;;;;;;;;-144.99;97.10;52509.25;5078614;28;19970;-73
2023/03/10 11:48:46;;;;;;;;;;;;;;;-144.99;97.53;52499.06;5086438;28;19928;-75
2023/03/10 11:51:18;;;;;;;;;;;;;;;-144.99;97.43;52501.09;5076952;28;20386;-75
2023/03/10 11:53:48;;;;;;;;;;;;;;;-144.99;97.50;52462.34;5105648;28;19928;-75
2023/03/10 11:56:17;;;;;;;;;;;;;;;-144.99;97.18;52482.75;5092293;28;19928;-75
2023/03/10 11:58:46;;;;;;;;;;;;;;;-144.99;97.03;52497.00;5081631;28;20029;-73
2023/03/10 12:01:15;;;;;;;;;;;;;;;-144.99;97.09;52509.25;5080799;28;19925;-73
2023/03/10 12:03:47;;;;;;;;;;;;;;;-144.99;97.12;52468.47;5083597;28;20392;-74
2023/03/10 12:06:15;;;;;;;;;;;;;;;-144.99;96.29;52497.00;5090629;28;19981;-74
2023/03/10 12:08:42;;;;;;;;;;;;;;;-144.99;96.26;52476.63;5075964;28;19978;-73
2023/03/10 12:11:14;;;;;;;;;;;;;;;-144.99;96.52;52488.84;5078267;28;19978;-74
2023/03/10 12:13:43;;;;;;;;;;;;;;;-144.99;96.50;52476.63;5086747;28;20053;-74
2023/03/10 12:16:13;;;;;;;;;;;;;;;-144.99;96.42;52533.69;5079319;28;20164;-75
2023/03/10 12:18:40;;;;;;;;;;;;;;;-144.99;96.56;52525.56;5089718;28;19928;-73
2023/03/10 12:21:17;;;;;;;;;;;;;;;-144.99;96.38;52499.06;5079713;28;19935;-75
2023/03/10 12:23:45;;;;;;;;;;;;;;;-144.99;97.10;52492.94;5078596;28;19924;-77
2023/03/10 12:26:13;;;;;;;;;;;;;;;-144.99;97.01;52533.69;5088823;28;20215;-77
2023/03/10 12:28:40;;;;;;;;;;;;;;;-144.99;96.87;52470.50;5081276;28;19995;-75